sensor_id;sensor_type;location;lat;lon;timestamp;temperature;humidity
27801;DHT22;15181;49.112;11.930;2022-07-04T00:00:46;16.90;99.90
27801;DHT22;15181;49.112;11.930;2022-07-04T00:03:13;16.80;99.90
27801;DHT22;15181;49.112;11.930;2022-07-04T00:05:40;16.70;99.90
27801;DHT22;15181;49.112;11.930;2022-07-04T00:08:07;16.70;99.90
27801;DHT22;15181;49.112;11.930;2022-07-04T00:10:33;16.80;99.90
27801;DHT22;15181;49.112;11.930;2022-07-04T00:13:02;17.00;99.90
27801;DHT22;15181;49.112;11.930;2022-07-04T00:15:29;16.80;99.90
27801;DHT22;15181;49.112;11.930;2022-07-04T00:17:55;16.70;99.90
27801;DHT22;15181;49.112;11.930;2022-07-04T00:20:22;16.60;99.90
27801;DHT22;15181;49.112;11.930;2022-07-04T00:22:49;16.70;99.90
27801;DHT22;15181;49.112;11.930;2022-07-04T00:25:16;16.70;99.90
27801;DHT22;15181;49.112;11.930;2022-07-04T00:27:43;16.70;99.90
27801;DHT22;15181;49.112;11.930;2022-07-04T00:30:11;16.70;99.90
27801;DHT22;15181;49.112;11.930;2022-07-04T00:32:38;16.80;99.90
27801;DHT22;15181;49.112;11.930;2022-07-04T00:35:06;16.70;99.90
27801;DHT22;15181;49.112;11.930;2022-07-04T00:37:32;16.60;99.90
27801;DHT22;15181;49.112;11.930;2022-07-04T00:39:59;16.60;99.90
27801;DHT22;15181;49.112;11.930;2022-07-04T00:42:26;16.70;99.90
27801;DHT22;15181;49.112;11.930;2022-07-04T00:44:53;16.80;99.90
27801;DHT22;15181;49.112;11.930;2022-07-04T00:47:21;16.80;99.90
27801;DHT22;15181;49.112;11.930;2022-07-04T00:49:48;16.50;99.90
27801;DHT22;15181;49.112;11.930;2022-07-04T00:52:15;16.50;99.90
27801;DHT22;15181;49.112;11.930;2022-07-04T00:54:44;16.60;99.90
27801;DHT22;15181;49.112;11.930;2022-07-04T00:57:11;16.60;99.90
27801;DHT22;15181;49.112;11.930;2022-07-04T00:59:38;16.70;99.90
27801;DHT22;15181;49.112;11.930;2022-07-04T01:02:05;16.60;99.90
27801;DHT22;15181;49.112;11.930;2022-07-04T01:04:34;16.60;99.90
27801;DHT22;15181;49.112;11.930;2022-07-04T01:07:03;16.50;99.90
27801;DHT22;15181;49.112;11.930;2022-07-04T01:09:30;16.70;99.90
27801;DHT22;15181;49.112;11.930;2022-07-04T01:11:57;16.90;99.90
27801;DHT22;15181;49.112;11.930;2022-07-04T01:14:24;16.90;99.90
27801;DHT22;15181;49.112;11.930;2022-07-04T01:16:51;16.90;99.90
27801;DHT22;15181;49.112;11.930;2022-07-04T01:19:17;16.80;99.90
27801;DHT22;15181;49.112;11.930;2022-07-04T01:21:45;16.80;99.90
27801;DHT22;15181;49.112;11.930;2022-07-04T01:24:13;16.90;99.90
27801;DHT22;15181;49.112;11.930;2022-07-04T01:26:39;17.10;99.90
27801;DHT22;15181;49.112;11.930;2022-07-04T01:29:08;17.10;99.90
27801;DHT22;15181;49.112;11.930;2022-07-04T01:31:34;17.10;99.90
27801;DHT22;15181;49.112;11.930;2022-07-04T01:34:01;17.20;99.90
27801;DHT22;15181;49.112;11.930;2022-07-04T01:36:28;17.20;99.90
27801;DHT22;15181;49.112;11.930;2022-07-04T01:38:56;17.40;99.90
27801;DHT22;15181;49.112;11.930;2022-07-04T01:41:24;17.40;99.90
27801;DHT22;15181;49.112;11.930;2022-07-04T01:43:51;17.50;99.90
27801;DHT22;15181;49.112;11.930;2022-07-04T01:46:18;17.60;99.90
27801;DHT22;15181;49.112;11.930;2022-07-04T01:48:44;17.70;99.90
27801;DHT22;15181;49.112;11.930;2022-07-04T01:51:11;17.80;99.90
27801;DHT22;15181;49.112;11.930;2022-07-04T01:53:38;17.70;99.90
27801;DHT22;15181;49.112;11.930;2022-07-04T01:56:06;17.50;99.90
27801;DHT22;15181;49.112;11.930;2022-07-04T01:58:33;17.20;99.90
27801;DHT22;15181;49.112;11.930;2022-07-04T02:01:01;17.10;99.90
27801;DHT22;15181;49.112;11.930;2022-07-04T02:03:45;17.10;99.90
27801;DHT22;15181;49.112;11.930;2022-07-04T02:06:12;17.20;99.90
27801;DHT22;15181;49.112;11.930;2022-07-04T02:08:39;17.40;99.90
27801;DHT22;15181;49.112;11.930;2022-07-04T02:11:25;17.40;99.90
27801;DHT22;15181;49.112;11.930;2022-07-04T02:13:51;17.50;99.90
27801;DHT22;15181;49.112;11.930;2022-07-04T02:16:17;17.60;99.90
27801;DHT22;15181;49.112;11.930;2022-07-04T02:18:44;17.70;99.90
27801;DHT22;15181;49.112;11.930;2022-07-04T02:21:11;17.60;99.90
27801;DHT22;15181;49.112;11.930;2022-07-04T02:23:38;17.50;99.90
27801;DHT22;15181;49.112;11.930;2022-07-04T02:26:05;17.40;99.90
27801;DHT22;15181;49.112;11.930;2022-07-04T02:28:33;17.40;99.90
27801;DHT22;15181;49.112;11.930;2022-07-04T02:31:00;17.40;99.90
27801;DHT22;15181;49.112;11.930;2022-07-04T02:33:27;17.50;99.90
27801;DHT22;15181;49.112;11.930;2022-07-04T02:35:54;17.40;99.90
27801;DHT22;15181;49.112;11.930;2022-07-04T02:38:20;17.20;99.90
27801;DHT22;15181;49.112;11.930;2022-07-04T02:40:47;17.00;99.90
27801;DHT22;15181;49.112;11.930;2022-07-04T02:43:14;17.00;99.90
27801;DHT22;15181;49.112;11.930;2022-07-04T02:45:42;16.90;99.90
27801;DHT22;15181;49.112;11.930;2022-07-04T02:48:12;16.90;99.90
27801;DHT22;15181;49.112;11.930;2022-07-04T02:50:39;16.80;99.90
27801;DHT22;15181;49.112;11.930;2022-07-04T02:53:06;16.80;99.90
27801;DHT22;15181;49.112;11.930;2022-07-04T02:55:33;16.80;99.90
27801;DHT22;15181;49.112;11.930;2022-07-04T02:58:00;16.90;99.90
27801;DHT22;15181;49.112;11.930;2022-07-04T03:00:28;16.80;99.90
27801;DHT22;15181;49.112;11.930;2022-07-04T03:02:57;16.60;99.90
27801;DHT22;15181;49.112;11.930;2022-07-04T03:05:27;16.70;99.90
27801;DHT22;15181;49.112;11.930;2022-07-04T03:07:57;16.80;99.90
27801;DHT22;15181;49.112;11.930;2022-07-04T03:10:24;17.00;99.90
27801;DHT22;15181;49.112;11.930;2022-07-04T03:12:52;17.10;99.90
27801;DHT22;15181;49.112;11.930;2022-07-04T03:15:18;17.20;99.90
27801;DHT22;15181;49.112;11.930;2022-07-04T03:17:45;17.20;99.90
27801;DHT22;15181;49.112;11.930;2022-07-04T03:20:19;17.10;99.90
27801;DHT22;15181;49.112;11.930;2022-07-04T03:22:46;17.00;99.90
27801;DHT22;15181;49.112;11.930;2022-07-04T03:25:13;16.80;99.90
27801;DHT22;15181;49.112;11.930;2022-07-04T03:27:40;16.70;99.90
27801;DHT22;15181;49.112;11.930;2022-07-04T03:30:07;16.70;99.90
27801;DHT22;15181;49.112;11.930;2022-07-04T03:32:34;16.80;99.90
27801;DHT22;15181;49.112;11.930;2022-07-04T03:35:01;16.80;99.90
27801;DHT22;15181;49.112;11.930;2022-07-04T03:37:29;16.80;99.90
27801;DHT22;15181;49.112;11.930;2022-07-04T03:39:56;16.90;99.90
27801;DHT22;15181;49.112;11.930;2022-07-04T03:42:23;16.90;99.90
27801;DHT22;15181;49.112;11.930;2022-07-04T03:44:50;17.00;99.90
27801;DHT22;15181;49.112;11.930;2022-07-04T03:47:16;17.00;99.90
27801;DHT22;15181;49.112;11.930;2022-07-04T03:49:43;17.10;99.90
27801;DHT22;15181;49.112;11.930;2022-07-04T03:52:10;17.10;99.90
27801;DHT22;15181;49.112;11.930;2022-07-04T03:54:38;17.00;99.90
27801;DHT22;15181;49.112;11.930;2022-07-04T03:57:06;16.90;99.90
27801;DHT22;15181;49.112;11.930;2022-07-04T03:59:33;16.80;99.90
27801;DHT22;15181;49.112;11.930;2022-07-04T04:02:00;16.80;99.90
27801;DHT22;15181;49.112;11.930;2022-07-04T04:04:27;16.80;99.90
27801;DHT22;15181;49.112;11.930;2022-07-04T04:07:12;16.80;99.90
27801;DHT22;15181;49.112;11.930;2022-07-04T04:09:40;16.90;99.90
27801;DHT22;15181;49.112;11.930;2022-07-04T04:12:07;17.00;99.90
27801;DHT22;15181;49.112;11.930;2022-07-04T04:14:34;17.00;99.90
27801;DHT22;15181;49.112;11.930;2022-07-04T04:17:02;17.10;99.90
27801;DHT22;15181;49.112;11.930;2022-07-04T04:19:29;17.20;99.90
27801;DHT22;15181;49.112;11.930;2022-07-04T04:21:56;17.30;99.90
27801;DHT22;15181;49.112;11.930;2022-07-04T04:24:25;17.30;99.90
27801;DHT22;15181;49.112;11.930;2022-07-04T04:26:55;17.40;99.90
27801;DHT22;15181;49.112;11.930;2022-07-04T04:29:23;17.60;99.90
27801;DHT22;15181;49.112;11.930;2022-07-04T04:31:52;17.70;99.90
27801;DHT22;15181;49.112;11.930;2022-07-04T04:34:19;17.60;99.90
27801;DHT22;15181;49.112;11.930;2022-07-04T04:36:46;17.60;99.90
27801;DHT22;15181;49.112;11.930;2022-07-04T04:39:13;17.50;99.90
27801;DHT22;15181;49.112;11.930;2022-07-04T04:41:40;17.50;99.90
27801;DHT22;15181;49.112;11.930;2022-07-04T04:44:08;17.50;99.90
27801;DHT22;15181;49.112;11.930;2022-07-04T04:46:35;17.60;99.90
27801;DHT22;15181;49.112;11.930;2022-07-04T04:49:01;17.70;99.90
27801;DHT22;15181;49.112;11.930;2022-07-04T04:51:28;17.80;99.90
27801;DHT22;15181;49.112;11.930;2022-07-04T04:53:55;17.80;99.90
27801;DHT22;15181;49.112;11.930;2022-07-04T04:56:22;17.80;99.90
27801;DHT22;15181;49.112;11.930;2022-07-04T04:58:49;17.90;99.90
27801;DHT22;15181;49.112;11.930;2022-07-04T05:01:17;18.00;99.90
27801;DHT22;15181;49.112;11.930;2022-07-04T05:03:44;18.10;99.90
27801;DHT22;15181;49.112;11.930;2022-07-04T05:06:10;18.10;99.90
27801;DHT22;15181;49.112;11.930;2022-07-04T05:08:37;18.20;99.90
27801;DHT22;15181;49.112;11.930;2022-07-04T05:11:04;18.30;99.90
27801;DHT22;15181;49.112;11.930;2022-07-04T05:13:31;18.30;99.90
27801;DHT22;15181;49.112;11.930;2022-07-04T05:15:58;18.40;99.90
27801;DHT22;15181;49.112;11.930;2022-07-04T05:18:27;18.40;99.90
27801;DHT22;15181;49.112;11.930;2022-07-04T05:21:00;18.40;99.90
27801;DHT22;15181;49.112;11.930;2022-07-04T05:23:40;18.20;99.90
27801;DHT22;15181;49.112;11.930;2022-07-04T05:26:15;18.10;99.90
27801;DHT22;15181;49.112;11.930;2022-07-04T05:28:48;18.10;99.90
27801;DHT22;15181;49.112;11.930;2022-07-04T05:31:18;18.20;99.90
27801;DHT22;15181;49.112;11.930;2022-07-04T05:33:48;18.30;99.90
27801;DHT22;15181;49.112;11.930;2022-07-04T05:36:18;18.40;99.90
27801;DHT22;15181;49.112;11.930;2022-07-04T05:38:47;18.50;99.90
27801;DHT22;15181;49.112;11.930;2022-07-04T05:41:21;18.50;99.90
27801;DHT22;15181;49.112;11.930;2022-07-04T05:44:02;18.60;99.90
27801;DHT22;15181;49.112;11.930;2022-07-04T05:46:35;18.60;99.90
27801;DHT22;15181;49.112;11.930;2022-07-04T05:49:09;18.70;99.90
27801;DHT22;15181;49.112;11.930;2022-07-04T05:51:37;18.70;99.90
27801;DHT22;15181;49.112;11.930;2022-07-04T05:54:12;18.80;99.90
27801;DHT22;15181;49.112;11.930;2022-07-04T05:56:44;18.70;99.90
27801;DHT22;15181;49.112;11.930;2022-07-04T05:59:20;18.80;99.90
27801;DHT22;15181;49.112;11.930;2022-07-04T06:02:07;18.70;99.90
27801;DHT22;15181;49.112;11.930;2022-07-04T06:04:41;18.50;99.90
27801;DHT22;15181;49.112;11.930;2022-07-04T06:07:15;18.40;99.90
27801;DHT22;15181;49.112;11.930;2022-07-04T06:09:46;18.30;99.90
27801;DHT22;15181;49.112;11.930;2022-07-04T06:12:20;18.30;99.90
27801;DHT22;15181;49.112;11.930;2022-07-04T06:15:13;18.40;99.90
27801;DHT22;15181;49.112;11.930;2022-07-04T06:17:48;18.50;99.90
27801;DHT22;15181;49.112;11.930;2022-07-04T06:20:29;18.60;99.90
27801;DHT22;15181;49.112;11.930;2022-07-04T06:23:09;18.80;99.90
27801;DHT22;15181;49.112;11.930;2022-07-04T06:25:43;18.90;99.90
27801;DHT22;15181;49.112;11.930;2022-07-04T06:28:25;19.10;99.90
27801;DHT22;15181;49.112;11.930;2022-07-04T06:31:08;19.30;99.90
27801;DHT22;15181;49.112;11.930;2022-07-04T06:33:45;19.40;99.90
27801;DHT22;15181;49.112;11.930;2022-07-04T06:36:43;19.60;99.90
27801;DHT22;15181;49.112;11.930;2022-07-04T06:39:17;19.80;99.90
27801;DHT22;15181;49.112;11.930;2022-07-04T06:41:46;19.90;99.90
27801;DHT22;15181;49.112;11.930;2022-07-04T06:44:15;20.00;99.90
27801;DHT22;15181;49.112;11.930;2022-07-04T06:46:48;20.10;99.90
27801;DHT22;15181;49.112;11.930;2022-07-04T06:49:33;20.20;99.90
27801;DHT22;15181;49.112;11.930;2022-07-04T06:52:06;20.30;99.90
27801;DHT22;15181;49.112;11.930;2022-07-04T06:54:44;20.30;99.90
27801;DHT22;15181;49.112;11.930;2022-07-04T06:57:18;20.40;99.90
27801;DHT22;15181;49.112;11.930;2022-07-04T06:59:55;20.50;99.90
27801;DHT22;15181;49.112;11.930;2022-07-04T07:02:30;20.60;99.90
27801;DHT22;15181;49.112;11.930;2022-07-04T07:05:08;20.70;99.90
27801;DHT22;15181;49.112;11.930;2022-07-04T07:07:47;20.70;99.90
27801;DHT22;15181;49.112;11.930;2022-07-04T07:10:22;20.70;99.90
27801;DHT22;15181;49.112;11.930;2022-07-04T07:12:53;20.70;99.90
27801;DHT22;15181;49.112;11.930;2022-07-04T07:15:32;20.70;99.90
27801;DHT22;15181;49.112;11.930;2022-07-04T07:18:07;20.70;99.90
27801;DHT22;15181;49.112;11.930;2022-07-04T07:23:33;20.80;99.90
27801;DHT22;15181;49.112;11.930;2022-07-04T07:26:16;20.80;99.90
27801;DHT22;15181;49.112;11.930;2022-07-04T07:28:49;20.90;99.90
27801;DHT22;15181;49.112;11.930;2022-07-04T07:31:23;20.90;99.90
27801;DHT22;15181;49.112;11.930;2022-07-04T07:34:05;21.00;99.90
27801;DHT22;15181;49.112;11.930;2022-07-04T07:36:45;21.10;99.90
27801;DHT22;15181;49.112;11.930;2022-07-04T07:39:22;21.30;99.90
27801;DHT22;15181;49.112;11.930;2022-07-04T07:41:57;21.40;99.90
27801;DHT22;15181;49.112;11.930;2022-07-04T07:44:30;21.60;99.90
27801;DHT22;15181;49.112;11.930;2022-07-04T07:47:05;21.70;99.90
27801;DHT22;15181;49.112;11.930;2022-07-04T07:49:36;21.80;99.90
27801;DHT22;15181;49.112;11.930;2022-07-04T07:52:10;21.90;99.90
27801;DHT22;15181;49.112;11.930;2022-07-04T07:54:43;22.00;99.90
27801;DHT22;15181;49.112;11.930;2022-07-04T07:57:13;22.10;99.90
27801;DHT22;15181;49.112;11.930;2022-07-04T07:59:53;22.30;99.90
27801;DHT22;15181;49.112;11.930;2022-07-04T08:02:27;22.40;99.90
27801;DHT22;15181;49.112;11.930;2022-07-04T08:05:10;22.40;99.90
27801;DHT22;15181;49.112;11.930;2022-07-04T08:07:53;22.50;99.90
27801;DHT22;15181;49.112;11.930;2022-07-04T08:10:47;22.50;99.90
27801;DHT22;15181;49.112;11.930;2022-07-04T08:13:26;22.70;99.90
27801;DHT22;15181;49.112;11.930;2022-07-04T08:15:57;22.80;99.90
27801;DHT22;15181;49.112;11.930;2022-07-04T08:18:41;22.90;99.90
27801;DHT22;15181;49.112;11.930;2022-07-04T08:21:12;23.00;99.90
27801;DHT22;15181;49.112;11.930;2022-07-04T08:23:44;23.10;99.90
27801;DHT22;15181;49.112;11.930;2022-07-04T08:26:14;23.10;99.90
27801;DHT22;15181;49.112;11.930;2022-07-04T08:28:49;23.20;99.90
27801;DHT22;15181;49.112;11.930;2022-07-04T08:31:24;23.20;99.90
27801;DHT22;15181;49.112;11.930;2022-07-04T08:34:02;23.20;99.90
27801;DHT22;15181;49.112;11.930;2022-07-04T08:36:45;23.30;99.90
27801;DHT22;15181;49.112;11.930;2022-07-04T08:39:18;23.30;99.90
27801;DHT22;15181;49.112;11.930;2022-07-04T08:42:12;23.30;99.90
27801;DHT22;15181;49.112;11.930;2022-07-04T08:44:52;23.40;99.90
27801;DHT22;15181;49.112;11.930;2022-07-04T08:47:24;23.50;99.90
27801;DHT22;15181;49.112;11.930;2022-07-04T08:50:05;23.60;99.90
27801;DHT22;15181;49.112;11.930;2022-07-04T08:52:41;23.60;99.90
27801;DHT22;15181;49.112;11.930;2022-07-04T08:55:20;23.70;99.90
27801;DHT22;15181;49.112;11.930;2022-07-04T08:58:12;23.80;99.90
27801;DHT22;15181;49.112;11.930;2022-07-04T09:01:14;23.80;99.90
27801;DHT22;15181;49.112;11.930;2022-07-04T09:03:55;23.90;99.90
27801;DHT22;15181;49.112;11.930;2022-07-04T09:06:38;24.00;99.90
27801;DHT22;15181;49.112;11.930;2022-07-04T09:09:17;24.00;99.90
27801;DHT22;15181;49.112;11.930;2022-07-04T09:11:49;24.00;99.90
27801;DHT22;15181;49.112;11.930;2022-07-04T09:14:28;24.10;99.90
27801;DHT22;15181;49.112;11.930;2022-07-04T09:17:25;24.10;99.90
27801;DHT22;15181;49.112;11.930;2022-07-04T09:20:15;24.10;99.90
27801;DHT22;15181;49.112;11.930;2022-07-04T09:22:46;24.10;99.90
27801;DHT22;15181;49.112;11.930;2022-07-04T09:25:18;24.10;99.90
27801;DHT22;15181;49.112;11.930;2022-07-04T09:27:53;24.20;99.90
27801;DHT22;15181;49.112;11.930;2022-07-04T09:30:27;24.30;99.90
27801;DHT22;15181;49.112;11.930;2022-07-04T09:32:56;24.50;99.90
27801;DHT22;15181;49.112;11.930;2022-07-04T09:35:28;24.70;99.90
27801;DHT22;15181;49.112;11.930;2022-07-04T09:37:57;24.80;99.90
27801;DHT22;15181;49.112;11.930;2022-07-04T09:40:27;24.90;99.90
27801;DHT22;15181;49.112;11.930;2022-07-04T09:42:57;24.80;99.90
27801;DHT22;15181;49.112;11.930;2022-07-04T09:45:35;24.90;99.90
27801;DHT22;15181;49.112;11.930;2022-07-04T09:48:07;25.00;99.90
27801;DHT22;15181;49.112;11.930;2022-07-04T09:50:37;25.00;99.90
27801;DHT22;15181;49.112;11.930;2022-07-04T09:53:12;25.00;99.90
27801;DHT22;15181;49.112;11.930;2022-07-04T09:55:49;25.20;99.90
27801;DHT22;15181;49.112;11.930;2022-07-04T09:58:21;25.30;99.90
27801;DHT22;15181;49.112;11.930;2022-07-04T10:01:07;25.40;99.90
27801;DHT22;15181;49.112;11.930;2022-07-04T10:03:52;25.60;99.90
27801;DHT22;15181;49.112;11.930;2022-07-04T10:06:25;25.70;99.90
27801;DHT22;15181;49.112;11.930;2022-07-04T10:08:52;25.90;99.90
27801;DHT22;15181;49.112;11.930;2022-07-04T10:11:19;26.00;99.90
27801;DHT22;15181;49.112;11.930;2022-07-04T10:14:04;26.30;99.90
27801;DHT22;15181;49.112;11.930;2022-07-04T10:17:01;26.40;99.90
27801;DHT22;15181;49.112;11.930;2022-07-04T10:19:28;26.40;99.90
27801;DHT22;15181;49.112;11.930;2022-07-04T10:21:59;26.40;99.90
27801;DHT22;15181;49.112;11.930;2022-07-04T10:24:47;26.30;99.90
27801;DHT22;15181;49.112;11.930;2022-07-04T10:27:14;26.10;99.90
27801;DHT22;15181;49.112;11.930;2022-07-04T10:29:41;26.20;99.90
27801;DHT22;15181;49.112;11.930;2022-07-04T10:32:11;26.30;99.90
27801;DHT22;15181;49.112;11.930;2022-07-04T10:34:41;26.50;99.90
27801;DHT22;15181;49.112;11.930;2022-07-04T10:37:08;26.70;99.90
27801;DHT22;15181;49.112;11.930;2022-07-04T10:39:35;26.50;99.90
27801;DHT22;15181;49.112;11.930;2022-07-04T10:42:02;26.40;99.90
27801;DHT22;15181;49.112;11.930;2022-07-04T10:44:32;26.50;99.90
27801;DHT22;15181;49.112;11.930;2022-07-04T10:47:03;26.40;99.90
27801;DHT22;15181;49.112;11.930;2022-07-04T10:49:31;26.30;99.90
27801;DHT22;15181;49.112;11.930;2022-07-04T10:52:11;26.30;99.90
27801;DHT22;15181;49.112;11.930;2022-07-04T10:54:40;26.40;99.90
27801;DHT22;15181;49.112;11.930;2022-07-04T10:57:12;26.60;99.90
27801;DHT22;15181;49.112;11.930;2022-07-04T10:59:41;26.70;99.90
27801;DHT22;15181;49.112;11.930;2022-07-04T11:02:28;26.90;99.90
27801;DHT22;15181;49.112;11.930;2022-07-04T11:05:00;27.10;99.90
27801;DHT22;15181;49.112;11.930;2022-07-04T11:07:58;27.20;99.90
27801;DHT22;15181;49.112;11.930;2022-07-04T11:10:26;27.40;99.90
27801;DHT22;15181;49.112;11.930;2022-07-04T11:13:15;27.60;99.90
27801;DHT22;15181;49.112;11.930;2022-07-04T11:16:03;27.80;99.90
27801;DHT22;15181;49.112;11.930;2022-07-04T11:18:38;27.90;99.90
27801;DHT22;15181;49.112;11.930;2022-07-04T11:21:15;28.00;99.90
27801;DHT22;15181;49.112;11.930;2022-07-04T11:23:51;28.00;99.90
27801;DHT22;15181;49.112;11.930;2022-07-04T11:26:20;28.00;99.90
27801;DHT22;15181;49.112;11.930;2022-07-04T11:28:47;28.00;99.90
27801;DHT22;15181;49.112;11.930;2022-07-04T11:31:14;28.00;99.90
27801;DHT22;15181;49.112;11.930;2022-07-04T11:33:42;27.90;99.90
27801;DHT22;15181;49.112;11.930;2022-07-04T11:36:13;28.00;99.90
27801;DHT22;15181;49.112;11.930;2022-07-04T11:38:51;28.10;99.90
27801;DHT22;15181;49.112;11.930;2022-07-04T11:41:20;28.20;99.90
27801;DHT22;15181;49.112;11.930;2022-07-04T11:44:06;27.70;99.90
27801;DHT22;15181;49.112;11.930;2022-07-04T11:47:00;27.90;99.90
27801;DHT22;15181;49.112;11.930;2022-07-04T11:49:27;28.20;99.90
27801;DHT22;15181;49.112;11.930;2022-07-04T11:51:55;28.40;99.90
27801;DHT22;15181;49.112;11.930;2022-07-04T11:54:22;28.50;99.90
27801;DHT22;15181;49.112;11.930;2022-07-04T11:56:49;28.50;99.90
27801;DHT22;15181;49.112;11.930;2022-07-04T11:59:17;28.10;99.90
27801;DHT22;15181;49.112;11.930;2022-07-04T12:01:45;27.90;99.90
27801;DHT22;15181;49.112;11.930;2022-07-04T12:04:13;28.00;99.90
27801;DHT22;15181;49.112;11.930;2022-07-04T12:06:41;28.10;99.90
27801;DHT22;15181;49.112;11.930;2022-07-04T12:09:10;28.00;99.90
27801;DHT22;15181;49.112;11.930;2022-07-04T12:11:57;28.00;99.90
27801;DHT22;15181;49.112;11.930;2022-07-04T12:14:24;27.90;99.90
27801;DHT22;15181;49.112;11.930;2022-07-04T12:17:10;27.90;99.90
27801;DHT22;15181;49.112;11.930;2022-07-04T12:19:37;27.80;99.90
27801;DHT22;15181;49.112;11.930;2022-07-04T12:22:04;27.80;99.90
27801;DHT22;15181;49.112;11.930;2022-07-04T12:24:42;27.90;99.90
27801;DHT22;15181;49.112;11.930;2022-07-04T12:27:28;27.80;99.90
27801;DHT22;15181;49.112;11.930;2022-07-04T12:29:56;28.10;99.90
27801;DHT22;15181;49.112;11.930;2022-07-04T12:32:23;28.10;99.90
27801;DHT22;15181;49.112;11.930;2022-07-04T12:34:50;28.20;99.90
27801;DHT22;15181;49.112;11.930;2022-07-04T12:37:17;28.20;99.90
27801;DHT22;15181;49.112;11.930;2022-07-04T12:39:45;27.90;99.90
27801;DHT22;15181;49.112;11.930;2022-07-04T12:42:14;27.40;99.90
27801;DHT22;15181;49.112;11.930;2022-07-04T12:44:42;27.50;99.90
27801;DHT22;15181;49.112;11.930;2022-07-04T12:47:10;27.40;99.90
27801;DHT22;15181;49.112;11.930;2022-07-04T12:49:42;27.40;99.90
27801;DHT22;15181;49.112;11.930;2022-07-04T12:52:12;27.10;99.90
27801;DHT22;15181;49.112;11.930;2022-07-04T12:54:39;26.90;99.90
27801;DHT22;15181;49.112;11.930;2022-07-04T12:57:12;27.00;99.90
27801;DHT22;15181;49.112;11.930;2022-07-04T12:59:40;27.30;99.90
27801;DHT22;15181;49.112;11.930;2022-07-04T13:02:08;27.40;99.90
27801;DHT22;15181;49.112;11.930;2022-07-04T13:04:35;27.70;99.90
27801;DHT22;15181;49.112;11.930;2022-07-04T13:07:12;27.60;99.90
27801;DHT22;15181;49.112;11.930;2022-07-04T13:09:40;27.60;99.90
27801;DHT22;15181;49.112;11.930;2022-07-04T13:12:08;27.80;99.90
27801;DHT22;15181;49.112;11.930;2022-07-04T13:14:56;28.10;99.90
27801;DHT22;15181;49.112;11.930;2022-07-04T13:17:24;28.10;99.90
27801;DHT22;15181;49.112;11.930;2022-07-04T13:19:51;28.40;99.90
27801;DHT22;15181;49.112;11.930;2022-07-04T13:22:19;28.70;99.90
27801;DHT22;15181;49.112;11.930;2022-07-04T13:24:47;29.00;99.90
27801;DHT22;15181;49.112;11.930;2022-07-04T13:27:14;29.10;99.90
27801;DHT22;15181;49.112;11.930;2022-07-04T13:29:41;28.50;99.90
27801;DHT22;15181;49.112;11.930;2022-07-04T13:32:09;28.20;99.90
27801;DHT22;15181;49.112;11.930;2022-07-04T13:34:37;28.30;99.90
27801;DHT22;15181;49.112;11.930;2022-07-04T13:37:04;28.60;99.90
27801;DHT22;15181;49.112;11.930;2022-07-04T13:39:31;28.90;99.90
27801;DHT22;15181;49.112;11.930;2022-07-04T13:41:59;29.20;99.90
27801;DHT22;15181;49.112;11.930;2022-07-04T13:44:26;28.80;99.90
27801;DHT22;15181;49.112;11.930;2022-07-04T13:46:53;28.60;99.90
27801;DHT22;15181;49.112;11.930;2022-07-04T13:49:23;28.70;99.90
27801;DHT22;15181;49.112;11.930;2022-07-04T13:51:49;28.90;99.90
27801;DHT22;15181;49.112;11.930;2022-07-04T13:54:16;29.00;99.90
27801;DHT22;15181;49.112;11.930;2022-07-04T13:56:44;28.70;99.90
27801;DHT22;15181;49.112;11.930;2022-07-04T13:59:11;28.60;99.90
27801;DHT22;15181;49.112;11.930;2022-07-04T14:01:40;28.80;99.90
27801;DHT22;15181;49.112;11.930;2022-07-04T14:04:07;28.80;99.90
27801;DHT22;15181;49.112;11.930;2022-07-04T14:06:37;28.60;99.90
27801;DHT22;15181;49.112;11.930;2022-07-04T14:09:04;28.80;99.90
27801;DHT22;15181;49.112;11.930;2022-07-04T14:11:31;28.90;99.90
27801;DHT22;15181;49.112;11.930;2022-07-04T14:13:58;29.00;99.90
27801;DHT22;15181;49.112;11.930;2022-07-04T14:16:24;28.90;99.90
27801;DHT22;15181;49.112;11.930;2022-07-04T14:18:51;29.10;99.90
27801;DHT22;15181;49.112;11.930;2022-07-04T14:21:18;29.00;99.90
27801;DHT22;15181;49.112;11.930;2022-07-04T14:23:46;28.90;99.90
27801;DHT22;15181;49.112;11.930;2022-07-04T14:26:15;29.00;99.90
27801;DHT22;15181;49.112;11.930;2022-07-04T14:28:45;28.50;99.90
27801;DHT22;15181;49.112;11.930;2022-07-04T14:31:12;28.20;99.90
27801;DHT22;15181;49.112;11.930;2022-07-04T14:33:39;28.10;99.90
27801;DHT22;15181;49.112;11.930;2022-07-04T14:36:07;28.30;99.90
27801;DHT22;15181;49.112;11.930;2022-07-04T14:38:34;28.60;99.90
27801;DHT22;15181;49.112;11.930;2022-07-04T14:41:02;28.70;99.90
27801;DHT22;15181;49.112;11.930;2022-07-04T14:43:39;28.70;99.90
27801;DHT22;15181;49.112;11.930;2022-07-04T14:46:07;28.80;99.90
27801;DHT22;15181;49.112;11.930;2022-07-04T14:48:34;29.00;99.90
27801;DHT22;15181;49.112;11.930;2022-07-04T14:51:02;29.20;99.90
27801;DHT22;15181;49.112;11.930;2022-07-04T14:53:29;29.40;99.90
27801;DHT22;15181;49.112;11.930;2022-07-04T14:55:56;29.60;99.90
27801;DHT22;15181;49.112;11.930;2022-07-04T14:58:24;29.50;99.90
27801;DHT22;15181;49.112;11.930;2022-07-04T15:00:51;29.30;99.90
27801;DHT22;15181;49.112;11.930;2022-07-04T15:03:18;28.90;99.90
27801;DHT22;15181;49.112;11.930;2022-07-04T15:05:45;29.10;99.90
27801;DHT22;15181;49.112;11.930;2022-07-04T15:08:12;28.90;99.90
27801;DHT22;15181;49.112;11.930;2022-07-04T15:10:39;28.70;99.90
27801;DHT22;15181;49.112;11.930;2022-07-04T15:13:06;28.60;99.90
27801;DHT22;15181;49.112;11.930;2022-07-04T15:15:35;28.60;99.90
27801;DHT22;15181;49.112;11.930;2022-07-04T15:18:02;28.80;99.90
27801;DHT22;15181;49.112;11.930;2022-07-04T15:20:29;28.60;99.90
27801;DHT22;15181;49.112;11.930;2022-07-04T15:23:13;28.50;99.90
27801;DHT22;15181;49.112;11.930;2022-07-04T15:25:57;28.60;99.90
27801;DHT22;15181;49.112;11.930;2022-07-04T15:28:24;28.80;99.90
27801;DHT22;15181;49.112;11.930;2022-07-04T15:30:53;28.90;99.90
27801;DHT22;15181;49.112;11.930;2022-07-04T15:33:20;28.80;99.90
27801;DHT22;15181;49.112;11.930;2022-07-04T15:35:53;28.80;99.90
27801;DHT22;15181;49.112;11.930;2022-07-04T15:38:20;28.70;99.90
27801;DHT22;15181;49.112;11.930;2022-07-04T15:40:47;28.70;99.90
27801;DHT22;15181;49.112;11.930;2022-07-04T15:43:14;28.60;99.90